createdAt,value
2019-02-22T00:00:45.918Z,28.30
2019-02-22T00:01:45.920Z,29.50
2019-02-22T00:02:45.883Z,28.70
2019-02-22T00:03:45.874Z,28.60
2019-02-22T00:04:45.854Z,28.00
2019-02-22T00:05:45.890Z,28.40
2019-02-22T00:06:45.863Z,29.20
2019-02-22T00:07:45.835Z,28.40
2019-02-22T00:08:45.814Z,28.20
2019-02-22T00:09:49.366Z,29.40
2019-02-22T00:10:45.804Z,29.10
2019-02-22T00:11:45.822Z,29.60
2019-02-22T00:12:45.769Z,30.40
2019-02-22T00:13:45.783Z,29.20
2019-02-22T00:14:45.753Z,29.30
2019-02-22T00:15:45.755Z,29.80
2019-02-22T00:16:45.751Z,29.20
2019-02-22T00:17:45.713Z,30.20
2019-02-22T00:18:45.709Z,30.60
2019-02-22T00:19:45.688Z,30.40
2019-02-22T00:20:45.691Z,31.00
2019-02-22T00:21:45.683Z,28.50
2019-02-22T00:22:45.657Z,29.80
2019-02-22T00:23:45.646Z,29.20
2019-02-22T00:24:45.682Z,29.50
2019-02-22T00:25:45.621Z,29.10
2019-02-22T00:26:45.631Z,30.00
2019-02-22T00:27:45.627Z,28.90
2019-02-22T00:28:45.607Z,29.50
2019-02-22T00:29:45.577Z,29.60
2019-02-22T00:30:45.574Z,28.70
2019-02-22T00:31:45.570Z,29.50
2019-02-22T00:32:45.549Z,29.00
2019-02-22T00:33:45.536Z,29.40
2019-02-22T00:34:45.522Z,28.10
2019-02-22T00:35:45.548Z,30.00
2019-02-22T00:36:45.549Z,30.40
2019-02-22T00:37:45.499Z,30.70
2019-02-22T00:38:45.550Z,30.20
2019-02-22T00:39:45.481Z,29.50
2019-02-22T00:40:45.456Z,30.70
2019-02-22T00:41:45.500Z,30.50
2019-02-22T00:42:45.433Z,29.40
2019-02-22T00:43:45.421Z,29.90
2019-02-22T00:44:45.423Z,29.20
2019-02-22T00:45:45.398Z,30.60
2019-02-22T00:46:45.399Z,29.50
2019-02-22T00:47:45.399Z,29.00
2019-02-22T00:48:45.387Z,29.80
2019-02-22T00:49:45.354Z,30.20
2019-02-22T00:50:45.407Z,29.40
2019-02-22T00:51:45.336Z,29.80
2019-02-22T00:52:45.365Z,30.00
2019-02-22T00:53:45.320Z,30.00
2019-02-22T00:54:45.318Z,29.00
2019-02-22T00:55:45.286Z,30.30
2019-02-22T00:56:45.278Z,30.00
2019-02-22T00:57:45.291Z,29.50
2019-02-22T00:58:45.271Z,30.10
2019-02-22T00:59:45.256Z,31.10
2019-02-22T01:00:45.240Z,30.80
2019-02-22T01:01:45.227Z,32.10
2019-02-22T01:02:45.224Z,31.00
2019-02-22T01:03:45.200Z,30.10
2019-02-22T01:04:45.196Z,30.70
2019-02-22T01:05:45.180Z,30.70
2019-02-22T01:06:45.172Z,30.30
2019-02-22T01:07:45.188Z,31.10
2019-02-22T01:08:45.153Z,30.80
2019-02-22T01:09:45.159Z,30.90
2019-02-22T01:10:45.119Z,30.60
2019-02-22T01:11:45.121Z,30.90
2019-02-22T01:12:45.117Z,30.20
2019-02-22T01:13:45.102Z,30.80
2019-02-22T01:14:45.085Z,30.10
2019-02-22T01:15:45.064Z,31.60
2019-02-22T01:16:45.062Z,31.40
2019-02-22T01:17:45.057Z,32.00
2019-02-22T01:18:45.031Z,32.30
2019-02-22T01:19:45.054Z,31.30
2019-02-22T01:20:53.925Z,31.80
2019-02-22T01:21:46.011Z,31.30
2019-02-22T01:22:45.031Z,31.50
2019-02-22T01:23:44.998Z,31.50
2019-02-22T01:24:44.966Z,30.60
2019-02-22T01:25:44.955Z,31.90
2019-02-22T01:26:44.948Z,33.10
2019-02-22T01:27:44.946Z,31.10
2019-02-22T01:28:44.940Z,32.20
2019-02-22T01:29:44.924Z,31.70
2019-02-22T01:30:44.919Z,32.40
2019-02-22T01:31:44.898Z,32.00
2019-02-22T01:32:44.891Z,30.60
2019-02-22T01:33:44.901Z,31.70
2019-02-22T01:34:44.855Z,32.50
2019-02-22T01:35:44.854Z,32.40
2019-02-22T01:36:44.837Z,30.60
2019-02-22T01:37:44.832Z,32.20
2019-02-22T01:38:44.833Z,31.70
2019-02-22T01:39:44.809Z,31.80
2019-02-22T01:40:44.793Z,32.60
2019-02-22T01:41:44.786Z,32.50
2019-02-22T01:42:44.777Z,31.10
2019-02-22T01:43:44.783Z,32.00
2019-02-22T01:44:44.750Z,31.70
2019-02-22T01:45:44.735Z,31.30
2019-02-22T01:46:44.737Z,32.40
2019-02-22T01:47:44.730Z,32.50
2019-02-22T01:48:44.725Z,31.20
2019-02-22T01:49:44.709Z,31.50
2019-02-22T01:50:44.701Z,31.20
2019-02-22T01:51:44.670Z,31.70
2019-02-22T01:52:44.655Z,32.60
2019-02-22T01:53:44.684Z,31.50
2019-02-22T01:54:44.657Z,31.50
2019-02-22T01:55:44.633Z,32.20
2019-02-22T01:56:44.612Z,30.70
2019-02-22T01:57:44.612Z,32.10
2019-02-22T01:58:48.712Z,31.90
2019-02-22T01:59:44.604Z,31.50
2019-02-22T02:00:44.574Z,32.40
2019-02-22T02:01:44.557Z,31.10
2019-02-22T02:02:44.547Z,31.40
2019-02-22T02:03:44.531Z,31.20
2019-02-22T02:04:44.556Z,31.70
2019-02-22T02:05:44.516Z,31.90
2019-02-22T02:06:44.497Z,32.00
2019-02-22T02:07:44.495Z,32.30
2019-02-22T02:08:44.482Z,32.80
2019-02-22T02:09:44.478Z,32.40
2019-02-22T02:10:53.876Z,33.10
2019-02-22T02:11:45.475Z,32.90
2019-02-22T02:12:44.435Z,33.00
2019-02-22T02:13:44.464Z,34.00
2019-02-22T02:14:44.429Z,32.40
2019-02-22T02:15:44.401Z,32.20
2019-02-22T02:16:44.391Z,33.30
2019-02-22T02:17:44.384Z,32.60
2019-02-22T02:18:44.367Z,34.50
2019-02-22T02:19:44.372Z,34.20
2019-02-22T02:20:44.370Z,35.70
2019-02-22T02:21:44.343Z,35.50
2019-02-22T02:22:44.330Z,36.40
2019-02-22T02:23:44.320Z,35.40
2019-02-22T02:24:44.396Z,35.90
2019-02-22T02:25:44.295Z,36.10
2019-02-22T02:26:44.277Z,35.30
2019-02-22T02:27:44.266Z,36.30
2019-02-22T02:28:44.264Z,35.50
2019-02-22T02:29:44.260Z,35.30
2019-02-22T02:30:44.230Z,35.40
2019-02-22T02:31:44.219Z,35.60
2019-02-22T02:32:44.230Z,36.10
2019-02-22T02:33:44.209Z,37.90
2019-02-22T02:34:44.201Z,36.60
2019-02-22T02:35:44.276Z,35.90
2019-02-22T02:36:44.161Z,36.50
2019-02-22T02:37:44.152Z,36.00
2019-02-22T02:38:44.149Z,36.40
2019-02-22T02:39:44.142Z,36.70
2019-02-22T02:40:44.164Z,36.60
2019-02-22T02:41:44.105Z,36.80
2019-02-22T02:42:44.102Z,36.00
2019-02-22T02:43:44.095Z,35.50
2019-02-22T02:44:44.092Z,36.80
2019-02-22T02:45:44.089Z,35.80
2019-02-22T02:46:44.053Z,35.20
2019-02-22T02:47:44.149Z,37.00
2019-02-22T02:48:44.028Z,35.80
2019-02-22T02:49:44.036Z,34.80
2019-02-22T02:50:44.038Z,37.20
2019-02-22T02:51:43.997Z,35.90
2019-02-22T02:52:44.013Z,36.50
2019-02-22T02:53:44.002Z,35.90
2019-02-22T02:54:43.964Z,36.30
2019-02-22T02:55:43.971Z,36.90
2019-02-22T02:56:46.188Z,36.70
2019-02-22T02:57:44.062Z,36.90
2019-02-22T02:58:43.936Z,36.80
2019-02-22T02:59:43.916Z,37.60
2019-02-22T03:00:43.897Z,36.70
2019-02-22T03:01:43.910Z,36.20
2019-02-22T03:02:43.894Z,35.30
2019-02-22T03:03:43.862Z,36.30
2019-02-22T03:04:43.850Z,36.60
2019-02-22T03:05:43.845Z,37.00
2019-02-22T03:06:43.877Z,36.50
2019-02-22T03:07:43.826Z,37.40
2019-02-22T03:08:43.826Z,37.10
2019-02-22T03:09:43.800Z,36.30
2019-02-22T03:10:43.784Z,36.50
2019-02-22T03:11:43.803Z,37.50
2019-02-22T03:12:43.762Z,35.90
2019-02-22T03:13:43.819Z,35.70
2019-02-22T03:14:43.753Z,35.80
2019-02-22T03:15:43.725Z,37.30
2019-02-22T03:16:43.730Z,36.70
2019-02-22T03:17:43.760Z,34.70
2019-02-22T03:18:43.692Z,36.20
2019-02-22T03:19:43.712Z,36.00
2019-02-22T03:20:43.670Z,36.80
2019-02-22T03:21:43.685Z,36.90
2019-02-22T03:22:43.652Z,37.30
2019-02-22T03:23:43.660Z,36.20
2019-02-22T03:24:43.634Z,37.20
2019-02-22T03:25:43.622Z,36.10
2019-02-22T03:26:43.636Z,37.00
2019-02-22T03:27:43.594Z,36.60
2019-02-22T03:28:43.588Z,36.00
2019-02-22T03:29:43.582Z,35.40
2019-02-22T03:30:43.571Z,36.60
2019-02-22T03:31:43.607Z,36.20
2019-02-22T03:32:43.546Z,35.00
2019-02-22T03:33:43.534Z,35.40
2019-02-22T03:34:43.522Z,33.90
2019-02-22T03:35:43.507Z,35.40
2019-02-22T03:36:43.525Z,35.20
2019-02-22T03:37:43.519Z,34.30
2019-02-22T03:38:43.477Z,35.10
2019-02-22T03:39:43.469Z,33.90
2019-02-22T03:40:43.490Z,32.60
2019-02-22T03:41:43.473Z,34.40
2019-02-22T03:42:43.433Z,33.70
2019-02-22T03:43:43.438Z,32.90
2019-02-22T03:44:43.408Z,33.00
2019-02-22T03:45:43.401Z,33.80
2019-02-22T03:46:43.403Z,32.90
2019-02-22T03:47:43.392Z,33.30
2019-02-22T03:48:43.364Z,32.20
2019-02-22T03:49:43.354Z,31.90
2019-02-22T03:50:43.340Z,32.90
2019-02-22T03:51:43.337Z,32.10
2019-02-22T03:52:43.337Z,31.40
2019-02-22T03:53:43.320Z,32.10
2019-02-22T03:54:43.302Z,32.70
2019-02-22T03:55:43.312Z,32.50
2019-02-22T03:56:43.277Z,32.20
2019-02-22T03:57:43.281Z,31.80
2019-02-22T03:58:43.253Z,33.40
2019-02-22T03:59:43.249Z,32.10
2019-02-22T04:00:43.240Z,33.30
2019-02-22T04:01:43.242Z,32.60
2019-02-22T04:02:43.239Z,32.40
2019-02-22T04:03:43.204Z,33.30
2019-02-22T04:04:43.211Z,32.80
2019-02-22T04:05:43.179Z,32.90
2019-02-22T04:06:43.186Z,33.00
2019-02-22T04:07:43.184Z,32.10
2019-02-22T04:08:43.194Z,33.80
2019-02-22T04:09:43.134Z,33.30
2019-02-22T04:10:43.141Z,32.80
2019-02-22T04:11:45.960Z,33.30
2019-02-22T04:12:43.104Z,33.30
2019-02-22T04:13:43.106Z,32.60
2019-02-22T04:14:43.087Z,33.50
2019-02-22T04:15:43.072Z,33.00
2019-02-22T04:16:43.065Z,34.00
2019-02-22T04:17:43.048Z,33.80
2019-02-22T04:18:43.056Z,34.50
2019-02-22T04:19:43.037Z,31.90
2019-02-22T04:20:43.016Z,32.80
2019-02-22T04:21:43.011Z,33.60
2019-02-22T04:22:44.429Z,32.70
2019-02-22T04:23:43.015Z,33.80
2019-02-22T04:24:42.985Z,33.40
2019-02-22T04:25:42.956Z,35.00
2019-02-22T04:26:42.950Z,33.60
2019-02-22T04:27:42.939Z,34.10
2019-02-22T04:28:42.945Z,33.60
2019-02-22T04:29:42.940Z,32.20
2019-02-22T04:30:42.905Z,32.50
2019-02-22T04:31:42.891Z,32.00
2019-02-22T04:32:42.880Z,31.90
2019-02-22T04:33:42.895Z,31.70
2019-02-22T04:34:42.880Z,31.70
2019-02-22T04:35:42.857Z,31.60
2019-02-22T04:36:42.839Z,31.10
2019-02-22T04:37:42.828Z,30.00
2019-02-22T04:38:42.822Z,30.30
2019-02-22T04:39:42.819Z,31.10
2019-02-22T04:40:42.790Z,30.90
2019-02-22T04:41:42.805Z,30.40
2019-02-22T04:42:42.785Z,30.10
2019-02-22T04:43:42.836Z,29.70
2019-02-22T04:44:42.769Z,30.40
2019-02-22T04:45:42.736Z,31.10
2019-02-22T04:46:42.729Z,30.90
2019-02-22T04:47:42.723Z,29.60
2019-02-22T04:48:42.795Z,30.10
2019-02-22T04:49:42.707Z,29.50
2019-02-22T04:50:42.684Z,30.50
2019-02-22T04:51:42.671Z,30.20
2019-02-22T04:52:42.682Z,30.00
2019-02-22T04:53:42.651Z,30.50
2019-02-22T04:54:42.668Z,30.40
2019-02-22T04:55:42.644Z,30.40
2019-02-22T04:56:42.622Z,29.30
2019-02-22T04:57:42.603Z,29.80
2019-02-22T04:58:42.594Z,30.20
2019-02-22T04:59:42.600Z,29.80
2019-02-22T05:00:42.578Z,29.00
2019-02-22T05:01:42.567Z,28.70
2019-02-22T05:02:42.562Z,29.70
2019-02-22T05:03:42.547Z,30.20
2019-02-22T05:04:42.556Z,29.60
2019-02-22T05:05:42.523Z,29.00
2019-02-22T05:06:42.509Z,29.50
2019-02-22T05:07:42.499Z,29.20
2019-02-22T05:08:42.505Z,28.60
2019-02-22T05:09:42.494Z,28.20
2019-02-22T05:10:42.481Z,28.20
2019-02-22T05:11:42.459Z,28.70
2019-02-22T05:12:42.496Z,29.30
2019-02-22T05:13:42.450Z,28.20
2019-02-22T05:14:42.444Z,27.70
2019-02-22T05:15:42.436Z,27.40
2019-02-22T05:16:42.464Z,28.00
2019-02-22T05:17:42.385Z,26.80
2019-02-22T05:18:42.393Z,26.70
2019-02-22T05:19:42.369Z,26.40
2019-02-22T05:20:42.369Z,26.40
2019-02-22T05:21:42.345Z,26.40
2019-02-22T05:22:42.333Z,26.10
2019-02-22T05:23:42.328Z,26.00
2019-02-22T05:24:42.343Z,25.90
2019-02-22T05:25:42.326Z,25.30
2019-02-22T05:26:42.289Z,25.90
2019-02-22T05:27:42.285Z,25.90
2019-02-22T05:28:42.265Z,25.70
2019-02-22T05:29:42.255Z,26.00
2019-02-22T05:30:42.280Z,26.90
2019-02-22T05:31:42.253Z,24.50
2019-02-22T05:32:42.228Z,26.70
2019-02-22T05:33:42.212Z,26.20
2019-02-22T05:34:42.205Z,26.40
2019-02-22T05:35:42.232Z,26.60
2019-02-22T05:36:44.211Z,25.70
2019-02-22T05:37:42.176Z,25.40
2019-02-22T05:38:42.158Z,25.50
2019-02-22T05:39:42.193Z,26.80
2019-02-22T05:40:42.174Z,26.40
2019-02-22T05:41:42.130Z,26.10
2019-02-22T05:42:42.119Z,27.20
2019-02-22T05:43:42.113Z,26.90
2019-02-22T05:44:42.096Z,26.50
2019-02-22T05:45:42.075Z,26.60
2019-02-22T05:46:42.100Z,25.40
2019-02-22T05:47:42.063Z,27.20
2019-02-22T05:48:42.043Z,26.80
2019-02-22T05:49:42.052Z,26.90
2019-02-22T05:50:42.028Z,27.40
2019-02-22T05:51:42.037Z,25.60
2019-02-22T05:52:42.023Z,26.60
2019-02-22T05:53:42.000Z,25.60
2019-02-22T05:54:41.993Z,25.70
2019-02-22T05:55:44.112Z,25.80
2019-02-22T05:56:41.978Z,25.30
2019-02-22T05:57:41.966Z,24.90
2019-02-22T05:58:41.939Z,25.10
2019-02-22T05:59:41.936Z,25.90
2019-02-22T06:00:41.927Z,24.80
2019-02-22T06:01:41.904Z,25.40
2019-02-22T06:02:41.912Z,24.50
2019-02-22T06:03:41.888Z,25.80
2019-02-22T06:04:41.873Z,24.20
2019-02-22T06:05:41.881Z,26.00
2019-02-22T06:06:41.854Z,25.60
2019-02-22T06:07:41.855Z,24.80
2019-02-22T06:08:41.834Z,25.10
2019-02-22T06:09:41.842Z,24.20
2019-02-22T06:10:41.805Z,24.30
2019-02-22T06:11:41.795Z,24.80
2019-02-22T06:12:41.814Z,24.50
2019-02-22T06:13:41.771Z,25.30
2019-02-22T06:14:41.760Z,24.90
2019-02-22T06:15:41.753Z,24.30
2019-02-22T06:16:41.738Z,23.90
2019-02-22T06:17:41.742Z,23.10
2019-02-22T06:18:41.723Z,23.10
2019-02-22T06:19:41.703Z,23.70
2019-02-22T06:20:41.700Z,22.70
2019-02-22T06:21:41.685Z,22.40
2019-02-22T06:22:41.692Z,22.00
2019-02-22T06:23:41.663Z,22.80
2019-02-22T06:24:41.651Z,22.80
2019-02-22T06:25:41.651Z,22.60
2019-02-22T06:26:41.629Z,22.70
2019-02-22T06:27:41.669Z,22.30
2019-02-22T06:28:41.606Z,22.50
2019-02-22T06:29:41.607Z,22.40
2019-02-22T06:30:41.609Z,22.00
2019-02-22T06:31:41.585Z,22.60
2019-02-22T06:32:42.427Z,22.40
2019-02-22T06:33:41.574Z,21.80
2019-02-22T06:34:41.542Z,21.30
2019-02-22T06:35:41.532Z,21.60
2019-02-22T06:36:41.524Z,22.10
2019-02-22T06:37:41.557Z,21.80
2019-02-22T06:38:41.538Z,22.20
2019-02-22T06:39:41.487Z,21.10
2019-02-22T06:40:41.479Z,21.00
2019-02-22T06:41:41.467Z,20.80
2019-02-22T06:43:42.479Z,19.90
2019-02-22T06:44:41.435Z,21.40
2019-02-22T06:45:41.423Z,21.10
2019-02-22T06:46:41.419Z,21.10
2019-02-22T06:47:41.402Z,21.30
2019-02-22T06:48:41.406Z,21.50
2019-02-22T06:49:41.395Z,21.60
2019-02-22T06:50:41.381Z,21.30
2019-02-22T06:51:41.435Z,22.00
2019-02-22T06:52:41.351Z,21.60
2019-02-22T06:53:41.364Z,21.20
2019-02-22T06:54:41.324Z,21.90
2019-02-22T06:55:41.321Z,21.60
2019-02-22T06:56:41.308Z,22.20
2019-02-22T06:57:41.291Z,21.30
2019-02-22T06:58:41.304Z,21.70
2019-02-22T06:59:41.271Z,22.10
2019-02-22T07:00:41.262Z,22.30
2019-02-22T07:01:41.280Z,21.90
2019-02-22T07:02:41.241Z,21.10
2019-02-22T07:03:41.256Z,21.80
2019-02-22T07:04:41.219Z,21.30
2019-02-22T07:05:41.205Z,21.50
2019-02-22T07:06:41.202Z,22.20
2019-02-22T07:07:41.252Z,22.30
2019-02-22T07:08:41.175Z,21.00
2019-02-22T07:09:41.188Z,22.10
2019-02-22T07:10:41.164Z,21.50
2019-02-22T07:11:41.138Z,20.30
2019-02-22T07:12:41.126Z,21.90
2019-02-22T07:13:41.120Z,22.80
2019-02-22T07:14:41.122Z,21.30
2019-02-22T07:15:41.104Z,21.10
2019-02-22T07:16:41.081Z,21.10
2019-02-22T07:17:41.114Z,20.70
2019-02-22T07:18:41.061Z,20.60
2019-02-22T07:19:41.084Z,20.50
2019-02-22T07:20:41.038Z,21.20
2019-02-22T07:21:52.221Z,21.10
2019-02-22T07:22:42.017Z,20.30
2019-02-22T07:23:41.007Z,19.40
2019-02-22T07:24:40.997Z,19.30
2019-02-22T07:25:41.012Z,18.80
2019-02-22T07:26:40.974Z,19.30
2019-02-22T07:27:40.968Z,19.60
2019-02-22T07:28:40.958Z,19.10
2019-02-22T07:29:40.956Z,19.00
2019-02-22T07:30:40.937Z,18.50
2019-02-22T07:31:40.930Z,19.00
2019-02-22T07:32:41.023Z,18.90
2019-02-22T07:33:40.905Z,18.70
2019-02-22T07:34:40.936Z,19.10
2019-02-22T07:35:40.887Z,18.20
2019-02-22T07:36:40.862Z,18.50
2019-02-22T07:37:40.855Z,17.90
2019-02-22T07:38:40.854Z,17.30
2019-02-22T07:39:40.830Z,17.10
2019-02-22T07:40:40.846Z,18.30
2019-02-22T07:41:40.805Z,18.80
2019-02-22T07:42:40.795Z,19.50
2019-02-22T07:43:40.788Z,20.70
2019-02-22T07:44:40.773Z,20.00
2019-02-22T07:45:40.784Z,19.30
2019-02-22T07:46:40.750Z,19.10
2019-02-22T07:47:40.757Z,18.70
2019-02-22T07:48:40.730Z,17.40
2019-02-22T07:49:40.719Z,18.70
2019-02-22T07:50:40.731Z,19.10
2019-02-22T07:51:40.696Z,17.00
2019-02-22T07:52:40.689Z,16.50
2019-02-22T07:53:40.675Z,16.60
2019-02-22T07:54:40.749Z,16.80
2019-02-22T07:55:40.672Z,17.10
2019-02-22T07:56:40.653Z,16.40
2019-02-22T07:57:40.635Z,16.60
2019-02-22T07:58:40.627Z,15.00
2019-02-22T07:59:40.607Z,15.60
2019-02-22T08:00:40.658Z,15.90
2019-02-22T08:01:47.483Z,16.40
2019-02-22T08:02:41.584Z,15.70
2019-02-22T08:03:40.562Z,16.00
2019-02-22T08:04:40.553Z,15.90
2019-02-22T08:05:40.542Z,16.10
2019-02-22T08:06:42.542Z,15.70
2019-02-22T08:07:40.518Z,15.40
2019-02-22T08:08:40.531Z,15.00
2019-02-22T08:09:40.495Z,14.50
2019-02-22T08:10:40.489Z,13.50
2019-02-22T08:11:40.497Z,12.30
2019-02-22T08:12:40.478Z,13.10
2019-02-22T08:13:40.451Z,12.00
2019-02-22T08:14:40.450Z,10.50
2019-02-22T08:15:40.433Z,10.70
2019-02-22T08:16:40.437Z,8.60
2019-02-22T08:17:40.416Z,8.10
2019-02-22T08:18:40.395Z,8.20
2019-02-22T08:19:40.393Z,7.70
2019-02-22T08:20:40.374Z,7.90
2019-02-22T08:21:40.377Z,7.50
2019-02-22T08:22:40.358Z,7.20
2019-02-22T08:23:40.352Z,7.50
2019-02-22T08:24:40.335Z,7.10
2019-02-22T08:25:40.315Z,7.50
2019-02-22T08:26:40.327Z,7.20
2019-02-22T08:27:52.491Z,7.40
2019-02-22T08:28:41.292Z,6.90
2019-02-22T08:29:40.275Z,7.20
2019-02-22T08:30:40.264Z,7.10
2019-02-22T08:31:40.281Z,7.10
2019-02-22T08:32:40.247Z,6.60
2019-02-22T08:33:40.233Z,5.80
2019-02-22T08:34:40.239Z,5.90
2019-02-22T08:35:40.211Z,5.80
2019-02-22T08:36:40.194Z,6.50
2019-02-22T08:37:40.221Z,6.50
2019-02-22T08:38:40.174Z,6.40
2019-02-22T08:39:40.168Z,5.80
2019-02-22T08:40:40.167Z,5.90
2019-02-22T08:41:40.137Z,6.10
2019-02-22T08:42:40.156Z,5.90
2019-02-22T08:43:40.129Z,6.40
2019-02-22T08:44:40.112Z,6.00
2019-02-22T08:45:40.102Z,6.00
2019-02-22T08:46:40.084Z,6.90
2019-02-22T08:47:40.107Z,6.00
2019-02-22T08:48:40.063Z,6.00
2019-02-22T08:49:40.055Z,6.20
2019-02-22T08:50:40.194Z,6.20
2019-02-22T08:51:40.034Z,6.10
2019-02-22T08:52:40.042Z,5.90
2019-02-22T08:53:40.013Z,5.70
2019-02-22T08:54:47.136Z,5.30
2019-02-22T08:55:40.987Z,5.20
2019-02-22T08:56:40.007Z,5.10
2019-02-22T08:57:39.977Z,5.30
2019-02-22T08:58:39.948Z,5.30
2019-02-22T08:59:39.938Z,5.00
2019-02-22T09:00:39.929Z,5.80
2019-02-22T09:01:39.914Z,5.40
2019-02-22T09:02:39.955Z,5.70
2019-02-22T09:03:49.682Z,5.40
2019-02-22T09:04:40.884Z,5.10
2019-02-22T09:05:39.871Z,5.20
2019-02-22T09:06:39.861Z,4.90
2019-02-22T09:07:39.852Z,5.70
2019-02-22T09:08:39.856Z,4.70
2019-02-22T09:09:39.828Z,5.20
2019-02-22T09:10:39.837Z,5.60
2019-02-22T09:11:39.806Z,5.10
2019-02-22T09:12:39.794Z,5.40
2019-02-22T09:13:43.504Z,4.60
2019-02-22T09:14:39.770Z,5.30
2019-02-22T09:15:39.757Z,5.20
2019-02-22T09:16:39.761Z,5.30
2019-02-22T09:17:39.741Z,5.20
2019-02-22T09:18:39.753Z,4.30
2019-02-22T09:19:39.719Z,4.90
2019-02-22T09:20:39.705Z,4.90
2019-02-22T09:21:39.691Z,4.90
2019-02-22T09:22:39.696Z,4.80
2019-02-22T09:23:39.691Z,5.10
2019-02-22T09:24:39.673Z,4.70
2019-02-22T09:25:39.654Z,4.90
2019-02-22T09:26:39.642Z,4.40
2019-02-22T09:27:39.626Z,4.70
2019-02-22T09:28:39.622Z,4.60
2019-02-22T09:29:39.631Z,4.40
2019-02-22T09:30:39.597Z,4.50
2019-02-22T09:31:39.588Z,4.40
2019-02-22T09:32:39.571Z,4.30
2019-02-22T09:33:39.569Z,4.40
2019-02-22T09:34:39.579Z,4.60
2019-02-22T09:35:39.583Z,4.90
2019-02-22T09:36:39.527Z,4.50
2019-02-22T09:37:39.615Z,4.80
2019-02-22T09:38:39.508Z,4.30
2019-02-22T09:39:39.528Z,4.50
2019-02-22T09:40:39.487Z,4.60
2019-02-22T09:41:39.475Z,4.10
2019-02-22T09:42:39.464Z,4.20
2019-02-22T09:43:39.454Z,4.10
2019-02-22T09:44:39.484Z,3.90
2019-02-22T09:45:39.428Z,4.00
2019-02-22T09:46:39.420Z,4.00
2019-02-22T09:47:39.417Z,3.80
2019-02-22T09:48:39.408Z,4.20
2019-02-22T09:49:39.382Z,4.00
2019-02-22T09:50:39.398Z,3.80
2019-02-22T09:51:41.276Z,4.20
2019-02-22T09:52:39.361Z,3.80
2019-02-22T09:53:39.341Z,4.20
2019-02-22T09:54:39.334Z,3.80
2019-02-22T09:55:39.345Z,3.60
2019-02-22T09:56:39.308Z,3.40
2019-02-22T09:57:39.297Z,3.30
2019-02-22T09:58:39.290Z,3.30
2019-02-22T09:59:39.282Z,3.10
2019-02-22T10:00:39.297Z,3.10
2019-02-22T10:01:39.252Z,3.70
2019-02-22T10:02:39.242Z,3.20
2019-02-22T10:03:39.234Z,3.10
2019-02-22T10:04:39.218Z,3.10
2019-02-22T10:05:39.234Z,3.10
2019-02-22T10:06:39.204Z,2.70
2019-02-22T10:07:39.188Z,3.00
2019-02-22T10:08:39.186Z,2.80
2019-02-22T10:09:39.174Z,2.90
2019-02-22T10:10:39.190Z,2.70
2019-02-22T10:11:39.147Z,2.70
2019-02-22T10:12:39.134Z,3.00
2019-02-22T10:13:39.117Z,3.20
2019-02-22T10:14:39.107Z,3.00
2019-02-22T10:15:39.112Z,2.80
2019-02-22T10:16:39.111Z,2.60
2019-02-22T10:17:39.083Z,2.60
2019-02-22T10:18:39.062Z,2.30
2019-02-22T10:19:39.088Z,2.10
2019-02-22T10:20:39.051Z,2.00
2019-02-22T10:21:39.050Z,2.10
2019-02-22T10:22:39.022Z,1.90
2019-02-22T10:23:39.011Z,1.80
2019-02-22T10:24:38.997Z,1.70
2019-02-22T10:25:38.985Z,1.90
2019-02-22T10:26:39.008Z,1.90
2019-02-22T10:27:38.966Z,2.00
2019-02-22T10:28:38.961Z,2.10
2019-02-22T10:29:38.944Z,1.70
2019-02-22T10:30:38.930Z,1.40
2019-02-22T10:31:38.940Z,1.50
2019-02-22T10:32:38.907Z,1.70
2019-02-22T10:33:38.901Z,1.50
2019-02-22T10:34:38.893Z,1.60
2019-02-22T10:35:38.887Z,1.50
2019-02-22T10:36:45.284Z,1.80
2019-02-22T10:37:39.874Z,1.90
2019-02-22T10:38:38.852Z,1.60
2019-02-22T10:39:38.834Z,2.20
2019-02-22T10:40:39.405Z,1.80
2019-02-22T10:41:38.817Z,1.70
2019-02-22T10:42:38.816Z,1.70
2019-02-22T10:43:38.792Z,1.60
2019-02-22T10:44:38.774Z,1.50
2019-02-22T10:45:38.847Z,1.60
2019-02-22T10:46:38.753Z,1.60
2019-02-22T10:47:38.769Z,1.60
2019-02-22T10:48:38.735Z,1.80
2019-02-22T10:49:38.801Z,1.70
2019-02-22T10:50:38.716Z,2.00
2019-02-22T10:51:38.698Z,2.00
2019-02-22T10:52:38.711Z,1.80
2019-02-22T10:53:38.706Z,2.10
2019-02-22T10:54:38.664Z,2.20
2019-02-22T10:55:38.653Z,2.10
2019-02-22T10:56:39.398Z,1.90
2019-02-22T10:57:38.653Z,2.00
2019-02-22T10:58:38.630Z,1.80
2019-02-22T10:59:38.611Z,1.70
2019-02-22T11:00:38.604Z,1.90
2019-02-22T11:01:38.593Z,2.10
2019-02-22T11:02:38.588Z,1.90
2019-02-22T11:03:38.600Z,1.80
2019-02-22T11:04:38.559Z,1.90
2019-02-22T11:05:38.574Z,1.90
2019-02-22T11:06:38.538Z,1.80
2019-02-22T11:07:38.537Z,1.70
2019-02-22T11:08:38.530Z,2.00
2019-02-22T11:09:38.501Z,2.00
2019-02-22T11:10:38.485Z,1.90
2019-02-22T11:11:38.493Z,2.20
2019-02-22T11:12:38.481Z,2.40
2019-02-22T11:13:38.458Z,1.80
2019-02-22T11:14:38.444Z,2.00
2019-02-22T11:15:38.437Z,2.30
2019-02-22T11:16:38.421Z,2.40
2019-02-22T11:17:38.432Z,2.40
2019-02-22T11:18:39.372Z,2.40
2019-02-22T11:19:38.389Z,2.30
2019-02-22T11:20:38.374Z,2.70
2019-02-22T11:21:38.420Z,2.50
2019-02-22T11:22:38.371Z,2.30
2019-02-22T11:23:38.364Z,2.40
2019-02-22T11:24:38.329Z,2.60
2019-02-22T11:25:38.322Z,2.50
2019-02-22T11:26:38.310Z,2.40
2019-02-22T11:27:38.304Z,3.10
2019-02-22T11:28:38.299Z,2.40
2019-02-22T11:29:38.281Z,2.70
2019-02-22T11:30:38.273Z,2.60
2019-02-22T11:31:38.270Z,2.50
2019-02-22T11:32:38.244Z,2.90
2019-02-22T11:33:38.273Z,2.50
2019-02-22T11:34:38.229Z,2.80
2019-02-22T11:35:38.212Z,2.40
2019-02-22T11:36:38.196Z,2.60
2019-02-22T11:37:38.185Z,2.90
2019-02-22T11:38:38.195Z,2.80
2019-02-22T11:39:38.177Z,2.70
2019-02-22T11:40:38.160Z,3.10
2019-02-22T11:41:38.141Z,3.10
2019-02-22T11:42:38.135Z,2.90
2019-02-22T11:43:38.129Z,2.80
2019-02-22T11:44:40.365Z,2.70
2019-02-22T11:45:38.099Z,3.00
2019-02-22T11:46:38.093Z,3.30
2019-02-22T11:47:38.089Z,3.10
2019-02-22T11:48:38.068Z,2.70
2019-02-22T11:49:38.078Z,3.00
2019-02-22T11:50:38.041Z,3.20
2019-02-22T11:51:38.042Z,3.50
2019-02-22T11:52:38.019Z,3.60
2019-02-22T11:53:38.050Z,3.40
2019-02-22T11:54:38.012Z,3.40
2019-02-22T11:55:37.990Z,3.60
2019-02-22T11:56:37.983Z,3.40
2019-02-22T11:57:37.975Z,3.40
2019-02-22T11:58:37.990Z,3.60
2019-02-22T11:59:37.949Z,3.70
2019-02-22T12:00:37.980Z,3.70
2019-02-22T12:01:37.929Z,3.90
2019-02-22T12:02:37.957Z,4.00
2019-02-22T12:03:37.917Z,3.90
2019-02-22T12:04:37.910Z,4.30
2019-02-22T12:05:37.896Z,3.70
2019-02-22T12:06:37.884Z,3.80
2019-02-22T12:07:37.867Z,3.70
2019-02-22T12:08:37.854Z,3.80
2019-02-22T12:09:37.840Z,4.20
2019-02-22T12:10:37.854Z,4.00
2019-02-22T12:11:37.819Z,3.60
2019-02-22T12:12:37.803Z,3.70
2019-02-22T12:13:37.828Z,4.20
2019-02-22T12:14:37.788Z,3.90
2019-02-22T12:15:37.786Z,3.60
2019-02-22T12:16:37.760Z,3.80
2019-02-22T12:17:37.881Z,3.90
2019-02-22T12:18:37.743Z,3.90
2019-02-22T12:19:37.725Z,3.90
2019-02-22T12:20:37.750Z,3.90
2019-02-22T12:21:37.708Z,3.30
2019-02-22T12:22:37.692Z,3.30
2019-02-22T12:23:37.692Z,3.20
2019-02-22T12:24:37.671Z,3.50
2019-02-22T12:25:37.691Z,3.80
2019-02-22T12:26:37.649Z,3.30
2019-02-22T12:27:37.641Z,4.20
2019-02-22T12:28:37.628Z,3.70
2019-02-22T12:29:37.616Z,4.10
2019-02-22T12:30:37.611Z,3.60
2019-02-22T12:31:37.619Z,3.30
2019-02-22T12:32:39.601Z,3.20
2019-02-22T12:33:37.575Z,3.60
2019-02-22T12:34:37.569Z,3.40
2019-02-22T12:35:37.564Z,3.20
2019-02-22T12:36:37.566Z,3.10
2019-02-22T12:37:37.531Z,3.10
2019-02-22T12:38:37.521Z,3.00
2019-02-22T12:39:37.519Z,3.60
2019-02-22T12:40:37.509Z,3.30
2019-02-22T12:41:37.513Z,3.30
2019-02-22T12:42:37.478Z,3.50
2019-02-22T12:43:37.464Z,3.80
2019-02-22T12:44:37.457Z,3.50
2019-02-22T12:45:37.448Z,3.50
2019-02-22T12:46:37.519Z,3.60
2019-02-22T12:47:37.414Z,4.10
2019-02-22T12:48:37.407Z,3.50
2019-02-22T12:49:40.044Z,4.00
2019-02-22T12:50:37.397Z,3.60
2019-02-22T12:51:37.384Z,3.90
2019-02-22T12:52:37.378Z,3.80
2019-02-22T12:53:37.351Z,3.40
2019-02-22T12:54:37.340Z,3.60
2019-02-22T12:55:37.330Z,3.70
2019-02-22T12:56:57.044Z,3.60
2019-02-22T12:57:38.398Z,3.60
2019-02-22T12:58:37.301Z,3.70
2019-02-22T12:59:37.295Z,3.80
2019-02-22T13:00:37.276Z,3.80
2019-02-22T13:01:37.264Z,3.50
2019-02-22T13:02:37.305Z,4.00